sensor_id;sensor_type;location;lat;lon;timestamp;P1;durP1;ratioP1;P2;durP2;ratioP2
46713;SDS011;32445;51.376;10.874;2022-12-07T00:01:29;15.03;;;13.60;;
46713;SDS011;32445;51.376;10.874;2022-12-07T00:04:33;15.57;;;14.18;;
46713;SDS011;32445;51.376;10.874;2022-12-07T00:07:34;17.25;;;15.63;;
46713;SDS011;32445;51.376;10.874;2022-12-07T00:10:34;15.65;;;14.23;;
46713;SDS011;32445;51.376;10.874;2022-12-07T00:13:35;15.10;;;13.77;;
46713;SDS011;32445;51.376;10.874;2022-12-07T00:16:36;14.97;;;13.67;;
46713;SDS011;32445;51.376;10.874;2022-12-07T00:19:38;13.45;;;12.27;;
46713;SDS011;32445;51.376;10.874;2022-12-07T00:22:38;13.75;;;12.55;;
46713;SDS011;32445;51.376;10.874;2022-12-07T00:25:38;17.27;;;12.55;;
46713;SDS011;32445;51.376;10.874;2022-12-07T00:28:39;14.07;;;12.77;;
46713;SDS011;32445;51.376;10.874;2022-12-07T00:31:39;14.23;;;12.95;;
46713;SDS011;32445;51.376;10.874;2022-12-07T00:34:39;14.50;;;13.10;;
46713;SDS011;32445;51.376;10.874;2022-12-07T00:37:40;13.82;;;12.40;;
46713;SDS011;32445;51.376;10.874;2022-12-07T00:40:40;16.02;;;13.63;;
46713;SDS011;32445;51.376;10.874;2022-12-07T00:43:41;14.45;;;12.98;;
46713;SDS011;32445;51.376;10.874;2022-12-07T00:46:43;15.40;;;13.07;;
46713;SDS011;32445;51.376;10.874;2022-12-07T00:49:45;13.48;;;12.18;;
46713;SDS011;32445;51.376;10.874;2022-12-07T00:52:47;14.00;;;12.15;;
46713;SDS011;32445;51.376;10.874;2022-12-07T00:55:48;14.23;;;12.93;;
46713;SDS011;32445;51.376;10.874;2022-12-07T00:58:49;12.95;;;11.85;;
46713;SDS011;32445;51.376;10.874;2022-12-07T01:01:54;18.77;;;13.18;;
46713;SDS011;32445;51.376;10.874;2022-12-07T01:04:54;12.82;;;11.63;;
46713;SDS011;32445;51.376;10.874;2022-12-07T01:07:54;11.90;;;10.90;;
46713;SDS011;32445;51.376;10.874;2022-12-07T01:10:58;12.23;;;11.23;;
46713;SDS011;32445;51.376;10.874;2022-12-07T01:14:01;12.40;;;11.20;;
46713;SDS011;32445;51.376;10.874;2022-12-07T01:17:01;13.10;;;11.77;;
46713;SDS011;32445;51.376;10.874;2022-12-07T01:20:02;12.95;;;11.77;;
46713;SDS011;32445;51.376;10.874;2022-12-07T01:23:03;12.82;;;11.30;;
46713;SDS011;32445;51.376;10.874;2022-12-07T01:26:04;12.48;;;11.43;;
46713;SDS011;32445;51.376;10.874;2022-12-07T01:29:07;11.85;;;10.75;;
46713;SDS011;32445;51.376;10.874;2022-12-07T01:32:07;13.48;;;11.73;;
46713;SDS011;32445;51.376;10.874;2022-12-07T01:35:07;13.88;;;12.57;;
46713;SDS011;32445;51.376;10.874;2022-12-07T01:38:08;13.15;;;11.85;;
46713;SDS011;32445;51.376;10.874;2022-12-07T01:41:09;11.23;;;10.18;;
46713;SDS011;32445;51.376;10.874;2022-12-07T01:44:18;14.38;;;13.00;;
46713;SDS011;32445;51.376;10.874;2022-12-07T01:47:19;13.60;;;12.50;;
46713;SDS011;32445;51.376;10.874;2022-12-07T01:50:19;13.20;;;12.00;;
46713;SDS011;32445;51.376;10.874;2022-12-07T01:53:21;13.82;;;12.38;;
46713;SDS011;32445;51.376;10.874;2022-12-07T01:56:27;13.35;;;12.15;;
46713;SDS011;32445;51.376;10.874;2022-12-07T02:02:33;13.77;;;12.35;;
46713;SDS011;32445;51.376;10.874;2022-12-07T02:05:37;12.77;;;11.57;;
46713;SDS011;32445;51.376;10.874;2022-12-07T02:08:40;13.80;;;12.40;;
46713;SDS011;32445;51.376;10.874;2022-12-07T02:11:44;13.43;;;12.02;;
46713;SDS011;32445;51.376;10.874;2022-12-07T02:14:44;12.80;;;11.73;;
46713;SDS011;32445;51.376;10.874;2022-12-07T02:17:49;12.02;;;11.00;;
46713;SDS011;32445;51.376;10.874;2022-12-07T02:27:32;12.10;;;11.10;;
46713;SDS011;32445;51.376;10.874;2022-12-07T02:30:38;12.53;;;11.33;;
46713;SDS011;32445;51.376;10.874;2022-12-07T02:33:49;12.60;;;11.48;;
46713;SDS011;32445;51.376;10.874;2022-12-07T02:36:55;12.10;;;11.13;;
46713;SDS011;32445;51.376;10.874;2022-12-07T02:40:05;14.70;;;11.48;;
46713;SDS011;32445;51.376;10.874;2022-12-07T02:43:16;11.05;;;9.98;;
46713;SDS011;32445;51.376;10.874;2022-12-07T02:46:30;10.52;;;9.73;;
46713;SDS011;32445;51.376;10.874;2022-12-07T02:49:36;12.70;;;10.10;;
46713;SDS011;32445;51.376;10.874;2022-12-07T02:52:38;10.43;;;9.63;;
46713;SDS011;32445;51.376;10.874;2022-12-07T02:55:38;9.50;;;8.70;;
46713;SDS011;32445;51.376;10.874;2022-12-07T03:05:27;10.68;;;9.88;;
46713;SDS011;32445;51.376;10.874;2022-12-07T03:12:00;10.13;;;9.43;;
46713;SDS011;32445;51.376;10.874;2022-12-07T03:15:20;10.07;;;9.35;;
46713;SDS011;32445;51.376;10.874;2022-12-07T03:18:28;9.70;;;8.98;;
46713;SDS011;32445;51.376;10.874;2022-12-07T03:21:33;9.15;;;8.40;;
46713;SDS011;32445;51.376;10.874;2022-12-07T03:24:51;9.55;;;8.85;;
46713;SDS011;32445;51.376;10.874;2022-12-07T03:27:58;9.90;;;9.18;;
46713;SDS011;32445;51.376;10.874;2022-12-07T03:34:15;9.50;;;8.80;;
46713;SDS011;32445;51.376;10.874;2022-12-07T03:37:37;9.73;;;9.02;;
46713;SDS011;32445;51.376;10.874;2022-12-07T03:40:48;10.07;;;9.18;;
46713;SDS011;32445;51.376;10.874;2022-12-07T03:44:00;10.10;;;9.27;;
46713;SDS011;32445;51.376;10.874;2022-12-07T03:47:12;10.20;;;9.38;;
46713;SDS011;32445;51.376;10.874;2022-12-07T03:53:34;9.13;;;8.43;;
46713;SDS011;32445;51.376;10.874;2022-12-07T03:56:39;11.45;;;10.45;;
46713;SDS011;32445;51.376;10.874;2022-12-07T03:59:42;12.85;;;11.63;;
46713;SDS011;32445;51.376;10.874;2022-12-07T04:02:46;11.50;;;10.57;;
46713;SDS011;32445;51.376;10.874;2022-12-07T04:05:47;11.20;;;10.30;;
46713;SDS011;32445;51.376;10.874;2022-12-07T04:08:47;9.82;;;9.13;;
46713;SDS011;32445;51.376;10.874;2022-12-07T04:11:47;11.88;;;10.98;;
46713;SDS011;32445;51.376;10.874;2022-12-07T04:14:48;10.63;;;9.73;;
46713;SDS011;32445;51.376;10.874;2022-12-07T04:17:49;11.00;;;10.10;;
46713;SDS011;32445;51.376;10.874;2022-12-07T04:20:49;12.48;;;11.43;;
46713;SDS011;32445;51.376;10.874;2022-12-07T04:23:49;12.40;;;11.30;;
46713;SDS011;32445;51.376;10.874;2022-12-07T04:26:50;12.55;;;11.45;;
46713;SDS011;32445;51.376;10.874;2022-12-07T04:29:50;10.88;;;10.07;;
46713;SDS011;32445;51.376;10.874;2022-12-07T04:32:51;10.35;;;9.52;;
46713;SDS011;32445;51.376;10.874;2022-12-07T04:35:53;12.30;;;10.70;;
46713;SDS011;32445;51.376;10.874;2022-12-07T04:38:54;9.98;;;9.10;;
46713;SDS011;32445;51.376;10.874;2022-12-07T04:41:54;11.52;;;10.63;;
46713;SDS011;32445;51.376;10.874;2022-12-07T04:44:55;11.82;;;10.88;;
46713;SDS011;32445;51.376;10.874;2022-12-07T04:47:56;10.82;;;10.02;;
46713;SDS011;32445;51.376;10.874;2022-12-07T04:50:56;11.70;;;10.85;;
46713;SDS011;32445;51.376;10.874;2022-12-07T04:53:57;11.25;;;10.35;;
46713;SDS011;32445;51.376;10.874;2022-12-07T04:56:57;10.68;;;9.73;;
46713;SDS011;32445;51.376;10.874;2022-12-07T04:59:58;12.65;;;11.52;;
46713;SDS011;32445;51.376;10.874;2022-12-07T05:02:58;13.70;;;12.48;;
46713;SDS011;32445;51.376;10.874;2022-12-07T05:05:58;11.10;;;10.10;;
46713;SDS011;32445;51.376;10.874;2022-12-07T05:08:59;11.18;;;10.25;;
46713;SDS011;32445;51.376;10.874;2022-12-07T05:12:00;12.87;;;11.70;;
46713;SDS011;32445;51.376;10.874;2022-12-07T05:15:00;12.45;;;11.48;;
46713;SDS011;32445;51.376;10.874;2022-12-07T05:18:01;11.85;;;10.85;;
46713;SDS011;32445;51.376;10.874;2022-12-07T05:21:03;12.52;;;11.43;;
46713;SDS011;32445;51.376;10.874;2022-12-07T05:24:03;13.13;;;11.93;;
46713;SDS011;32445;51.376;10.874;2022-12-07T05:27:05;14.77;;;11.52;;
46713;SDS011;32445;51.376;10.874;2022-12-07T05:30:05;13.02;;;11.55;;
46713;SDS011;32445;51.376;10.874;2022-12-07T05:33:06;11.50;;;10.50;;
46713;SDS011;32445;51.376;10.874;2022-12-07T05:36:06;36.05;;;25.92;;
46713;SDS011;32445;51.376;10.874;2022-12-07T05:39:07;23.75;;;21.33;;
46713;SDS011;32445;51.376;10.874;2022-12-07T05:42:08;18.20;;;16.25;;
46713;SDS011;32445;51.376;10.874;2022-12-07T05:45:13;14.20;;;13.10;;
46713;SDS011;32445;51.376;10.874;2022-12-07T05:48:14;14.68;;;13.38;;
46713;SDS011;32445;51.376;10.874;2022-12-07T05:51:14;15.95;;;12.90;;
46713;SDS011;32445;51.376;10.874;2022-12-07T05:54:14;15.60;;;14.20;;
46713;SDS011;32445;51.376;10.874;2022-12-07T05:57:14;12.90;;;11.35;;
46713;SDS011;32445;51.376;10.874;2022-12-07T06:00:15;12.75;;;11.52;;
46713;SDS011;32445;51.376;10.874;2022-12-07T06:03:16;17.48;;;10.88;;
46713;SDS011;32445;51.376;10.874;2022-12-07T06:06:16;11.57;;;9.23;;
46713;SDS011;32445;51.376;10.874;2022-12-07T06:09:16;11.35;;;10.18;;
46713;SDS011;32445;51.376;10.874;2022-12-07T06:12:18;14.82;;;10.30;;
46713;SDS011;32445;51.376;10.874;2022-12-07T06:15:36;10.32;;;8.93;;
46713;SDS011;32445;51.376;10.874;2022-12-07T06:18:37;13.45;;;9.55;;
46713;SDS011;32445;51.376;10.874;2022-12-07T06:21:37;10.07;;;8.85;;
46713;SDS011;32445;51.376;10.874;2022-12-07T06:24:37;14.68;;;10.98;;
46713;SDS011;32445;51.376;10.874;2022-12-07T06:27:38;11.18;;;10.13;;
46713;SDS011;32445;51.376;10.874;2022-12-07T06:30:38;11.40;;;10.38;;
46713;SDS011;32445;51.376;10.874;2022-12-07T06:33:39;18.63;;;12.18;;
46713;SDS011;32445;51.376;10.874;2022-12-07T06:36:40;14.87;;;10.17;;
46713;SDS011;32445;51.376;10.874;2022-12-07T06:39:40;13.07;;;11.25;;
46713;SDS011;32445;51.376;10.874;2022-12-07T06:42:41;12.85;;;11.52;;
46713;SDS011;32445;51.376;10.874;2022-12-07T06:45:41;12.52;;;11.35;;
46713;SDS011;32445;51.376;10.874;2022-12-07T06:48:42;15.48;;;11.30;;
46713;SDS011;32445;51.376;10.874;2022-12-07T06:51:43;14.27;;;12.67;;
46713;SDS011;32445;51.376;10.874;2022-12-07T06:54:44;17.42;;;13.45;;
46713;SDS011;32445;51.376;10.874;2022-12-07T06:57:45;15.52;;;12.27;;
46713;SDS011;32445;51.376;10.874;2022-12-07T07:00:45;17.45;;;13.13;;
46713;SDS011;32445;51.376;10.874;2022-12-07T07:03:48;18.90;;;14.45;;
46713;SDS011;32445;51.376;10.874;2022-12-07T07:06:48;17.63;;;13.60;;
46713;SDS011;32445;51.376;10.874;2022-12-07T07:09:49;16.42;;;14.25;;
46713;SDS011;32445;51.376;10.874;2022-12-07T07:12:49;17.33;;;15.15;;
46713;SDS011;32445;51.376;10.874;2022-12-07T07:15:52;15.73;;;14.15;;
46713;SDS011;32445;51.376;10.874;2022-12-07T07:18:52;12.82;;;11.63;;
46713;SDS011;32445;51.376;10.874;2022-12-07T07:21:52;16.77;;;15.00;;
46713;SDS011;32445;51.376;10.874;2022-12-07T07:24:53;21.10;;;14.13;;
46713;SDS011;32445;51.376;10.874;2022-12-07T07:27:53;16.70;;;13.60;;
46713;SDS011;32445;51.376;10.874;2022-12-07T07:30:54;14.98;;;13.50;;
46713;SDS011;32445;51.376;10.874;2022-12-07T07:33:54;17.20;;;15.40;;
46713;SDS011;32445;51.376;10.874;2022-12-07T07:36:54;16.38;;;14.38;;
46713;SDS011;32445;51.376;10.874;2022-12-07T07:39:55;16.70;;;14.07;;
46713;SDS011;32445;51.376;10.874;2022-12-07T07:42:55;17.00;;;14.52;;
46713;SDS011;32445;51.376;10.874;2022-12-07T07:45:56;17.75;;;15.23;;
46713;SDS011;32445;51.376;10.874;2022-12-07T07:48:56;14.70;;;12.93;;
46713;SDS011;32445;51.376;10.874;2022-12-07T07:51:56;18.35;;;12.85;;
46713;SDS011;32445;51.376;10.874;2022-12-07T07:54:57;15.55;;;13.95;;
46713;SDS011;32445;51.376;10.874;2022-12-07T07:57:57;18.02;;;12.55;;
46713;SDS011;32445;51.376;10.874;2022-12-07T08:01:03;15.20;;;13.15;;
46713;SDS011;32445;51.376;10.874;2022-12-07T08:04:04;19.48;;;12.63;;
46713;SDS011;32445;51.376;10.874;2022-12-07T08:07:04;18.25;;;11.30;;
46713;SDS011;32445;51.376;10.874;2022-12-07T08:10:05;12.30;;;10.88;;
46713;SDS011;32445;51.376;10.874;2022-12-07T08:13:06;15.98;;;11.40;;
46713;SDS011;32445;51.376;10.874;2022-12-07T08:16:13;13.48;;;10.70;;
46713;SDS011;32445;51.376;10.874;2022-12-07T08:19:15;16.13;;;9.83;;
46713;SDS011;32445;51.376;10.874;2022-12-07T08:22:15;12.23;;;9.25;;
46713;SDS011;32445;51.376;10.874;2022-12-07T08:25:15;9.43;;;8.63;;
46713;SDS011;32445;51.376;10.874;2022-12-07T08:28:16;11.25;;;9.23;;
46713;SDS011;32445;51.376;10.874;2022-12-07T08:31:17;13.05;;;8.93;;
46713;SDS011;32445;51.376;10.874;2022-12-07T08:34:18;11.30;;;9.25;;
46713;SDS011;32445;51.376;10.874;2022-12-07T08:37:19;9.98;;;8.00;;
46713;SDS011;32445;51.376;10.874;2022-12-07T08:40:19;9.65;;;8.68;;
46713;SDS011;32445;51.376;10.874;2022-12-07T08:43:21;14.70;;;9.75;;
46713;SDS011;32445;51.376;10.874;2022-12-07T08:46:23;13.52;;;7.55;;
46713;SDS011;32445;51.376;10.874;2022-12-07T08:49:36;12.05;;;8.77;;
46713;SDS011;32445;51.376;10.874;2022-12-07T08:52:43;9.40;;;7.85;;
46713;SDS011;32445;51.376;10.874;2022-12-07T08:55:44;10.73;;;7.05;;
46713;SDS011;32445;51.376;10.874;2022-12-07T08:58:46;7.10;;;6.50;;
46713;SDS011;32445;51.376;10.874;2022-12-07T09:01:47;7.28;;;6.55;;
46713;SDS011;32445;51.376;10.874;2022-12-07T09:04:47;7.32;;;6.53;;
46713;SDS011;32445;51.376;10.874;2022-12-07T09:07:48;10.07;;;7.78;;
46713;SDS011;32445;51.376;10.874;2022-12-07T09:10:52;9.90;;;6.88;;
46713;SDS011;32445;51.376;10.874;2022-12-07T09:13:53;7.80;;;7.13;;
46713;SDS011;32445;51.376;10.874;2022-12-07T09:16:53;11.13;;;8.40;;
46713;SDS011;32445;51.376;10.874;2022-12-07T09:19:54;9.73;;;6.80;;
46713;SDS011;32445;51.376;10.874;2022-12-07T09:22:54;8.23;;;7.38;;
46713;SDS011;32445;51.376;10.874;2022-12-07T09:25:54;8.45;;;7.45;;
46713;SDS011;32445;51.376;10.874;2022-12-07T09:28:55;11.32;;;8.63;;
46713;SDS011;32445;51.376;10.874;2022-12-07T09:31:55;9.30;;;7.60;;
46713;SDS011;32445;51.376;10.874;2022-12-07T09:34:55;12.82;;;7.43;;
46713;SDS011;32445;51.376;10.874;2022-12-07T09:37:56;9.25;;;7.05;;
46713;SDS011;32445;51.376;10.874;2022-12-07T09:40:56;8.07;;;7.28;;
46713;SDS011;32445;51.376;10.874;2022-12-07T09:44:20;6.72;;;6.22;;
46713;SDS011;32445;51.376;10.874;2022-12-07T09:47:23;8.82;;;7.15;;
46713;SDS011;32445;51.376;10.874;2022-12-07T09:50:24;8.07;;;6.28;;
46713;SDS011;32445;51.376;10.874;2022-12-07T09:53:27;7.28;;;6.68;;
46713;SDS011;32445;51.376;10.874;2022-12-07T09:56:30;11.73;;;6.60;;
46713;SDS011;32445;51.376;10.874;2022-12-07T09:59:31;5.85;;;5.30;;
46713;SDS011;32445;51.376;10.874;2022-12-07T10:02:39;8.60;;;7.90;;
46713;SDS011;32445;51.376;10.874;2022-12-07T10:05:45;8.80;;;7.63;;
46713;SDS011;32445;51.376;10.874;2022-12-07T10:08:49;5.22;;;4.72;;
46713;SDS011;32445;51.376;10.874;2022-12-07T10:12:09;6.45;;;4.15;;
46713;SDS011;32445;51.376;10.874;2022-12-07T10:15:11;10.90;;;5.32;;
46713;SDS011;32445;51.376;10.874;2022-12-07T10:18:28;6.53;;;3.92;;
46713;SDS011;32445;51.376;10.874;2022-12-07T10:21:41;28.42;;;17.88;;
46713;SDS011;32445;51.376;10.874;2022-12-07T10:25:08;2.78;;;2.35;;
46713;SDS011;32445;51.376;10.874;2022-12-07T10:28:18;3.92;;;3.63;;
46713;SDS011;32445;51.376;10.874;2022-12-07T10:31:19;7.35;;;3.50;;
46713;SDS011;32445;51.376;10.874;2022-12-07T10:34:23;3.90;;;3.60;;
46713;SDS011;32445;51.376;10.874;2022-12-07T10:37:28;3.20;;;2.97;;
46713;SDS011;32445;51.376;10.874;2022-12-07T10:40:30;2.97;;;2.78;;
46713;SDS011;32445;51.376;10.874;2022-12-07T11:00:24;6.40;;;4.22;;
46713;SDS011;32445;51.376;10.874;2022-12-07T11:03:29;6.88;;;3.85;;
46713;SDS011;32445;51.376;10.874;2022-12-07T11:10:18;3.63;;;3.35;;
46713;SDS011;32445;51.376;10.874;2022-12-07T11:23:16;5.28;;;4.53;;
46713;SDS011;32445;51.376;10.874;2022-12-07T11:30:25;4.38;;;3.97;;
46713;SDS011;32445;51.376;10.874;2022-12-07T11:33:40;5.10;;;3.70;;
46713;SDS011;32445;51.376;10.874;2022-12-07T11:36:47;4.57;;;4.05;;
46713;SDS011;32445;51.376;10.874;2022-12-07T11:39:56;4.45;;;4.03;;
46713;SDS011;32445;51.376;10.874;2022-12-07T11:43:46;6.13;;;4.18;;
46713;SDS011;32445;51.376;10.874;2022-12-07T11:56:10;4.80;;;3.45;;
46713;SDS011;32445;51.376;10.874;2022-12-07T11:59:29;10.45;;;3.83;;
46713;SDS011;32445;51.376;10.874;2022-12-07T12:02:41;5.10;;;4.00;;
46713;SDS011;32445;51.376;10.874;2022-12-07T12:05:48;6.78;;;3.90;;
46713;SDS011;32445;51.376;10.874;2022-12-07T12:09:04;7.63;;;4.07;;
46713;SDS011;32445;51.376;10.874;2022-12-07T12:22:06;4.63;;;3.67;;
46713;SDS011;32445;51.376;10.874;2022-12-07T12:25:34;6.88;;;4.18;;
46713;SDS011;32445;51.376;10.874;2022-12-07T12:28:56;3.75;;;3.45;;
46713;SDS011;32445;51.376;10.874;2022-12-07T12:32:13;4.00;;;3.65;;
46713;SDS011;32445;51.376;10.874;2022-12-07T12:38:27;3.47;;;3.17;;
46713;SDS011;32445;51.376;10.874;2022-12-07T12:44:39;4.15;;;3.80;;
46713;SDS011;32445;51.376;10.874;2022-12-07T12:54:28;4.18;;;3.45;;
46713;SDS011;32445;51.376;10.874;2022-12-07T12:57:31;4.95;;;2.67;;
46713;SDS011;32445;51.376;10.874;2022-12-07T13:00:33;4.75;;;2.05;;
46713;SDS011;32445;51.376;10.874;2022-12-07T13:03:34;3.60;;;2.63;;
46713;SDS011;32445;51.376;10.874;2022-12-07T13:06:35;4.70;;;3.67;;
46713;SDS011;32445;51.376;10.874;2022-12-07T13:09:38;6.00;;;3.05;;
46713;SDS011;32445;51.376;10.874;2022-12-07T13:12:54;3.90;;;2.70;;
46713;SDS011;32445;51.376;10.874;2022-12-07T13:22:41;4.53;;;2.85;;
46713;SDS011;32445;51.376;10.874;2022-12-07T13:26:01;5.10;;;3.17;;
46713;SDS011;32445;51.376;10.874;2022-12-07T13:32:25;4.45;;;3.53;;
46713;SDS011;32445;51.376;10.874;2022-12-07T13:35:34;3.85;;;3.47;;
46713;SDS011;32445;51.376;10.874;2022-12-07T13:38:36;4.15;;;2.78;;
46713;SDS011;32445;51.376;10.874;2022-12-07T13:41:41;2.63;;;2.42;;
46713;SDS011;32445;51.376;10.874;2022-12-07T13:44:42;6.63;;;2.80;;
46713;SDS011;32445;51.376;10.874;2022-12-07T13:47:48;4.97;;;3.05;;
46713;SDS011;32445;51.376;10.874;2022-12-07T13:50:54;3.80;;;2.75;;
46713;SDS011;32445;51.376;10.874;2022-12-07T13:54:00;4.22;;;3.00;;
46713;SDS011;32445;51.376;10.874;2022-12-07T13:57:08;6.65;;;3.25;;
46713;SDS011;32445;51.376;10.874;2022-12-07T14:00:16;5.65;;;2.83;;
46713;SDS011;32445;51.376;10.874;2022-12-07T14:06:26;7.18;;;4.50;;
46713;SDS011;32445;51.376;10.874;2022-12-07T14:09:28;5.80;;;4.72;;
46713;SDS011;32445;51.376;10.874;2022-12-07T14:12:30;4.18;;;3.10;;
46713;SDS011;32445;51.376;10.874;2022-12-07T14:15:34;11.10;;;6.63;;
46713;SDS011;32445;51.376;10.874;2022-12-07T14:21:35;6.82;;;4.20;;
46713;SDS011;32445;51.376;10.874;2022-12-07T14:24:42;7.70;;;3.95;;
46713;SDS011;32445;51.376;10.874;2022-12-07T14:27:50;6.03;;;4.18;;
46713;SDS011;32445;51.376;10.874;2022-12-07T14:30:58;4.90;;;4.38;;
46713;SDS011;32445;51.376;10.874;2022-12-07T14:34:00;3.50;;;2.97;;
46713;SDS011;32445;51.376;10.874;2022-12-07T14:37:00;3.00;;;2.72;;
46713;SDS011;32445;51.376;10.874;2022-12-07T14:40:00;6.68;;;3.20;;
46713;SDS011;32445;51.376;10.874;2022-12-07T14:43:02;3.00;;;2.67;;
46713;SDS011;32445;51.376;10.874;2022-12-07T14:46:06;5.13;;;4.13;;
46713;SDS011;32445;51.376;10.874;2022-12-07T14:49:06;7.95;;;3.63;;
46713;SDS011;32445;51.376;10.874;2022-12-07T14:52:11;4.40;;;2.80;;
46713;SDS011;32445;51.376;10.874;2022-12-07T14:58:28;4.50;;;3.10;;
46713;SDS011;32445;51.376;10.874;2022-12-07T15:01:29;8.07;;;7.22;;
46713;SDS011;32445;51.376;10.874;2022-12-07T15:04:29;6.43;;;5.53;;
46713;SDS011;32445;51.376;10.874;2022-12-07T15:07:29;10.65;;;4.72;;
46713;SDS011;32445;51.376;10.874;2022-12-07T15:10:31;7.38;;;4.13;;
46713;SDS011;32445;51.376;10.874;2022-12-07T15:13:33;7.10;;;3.50;;
46713;SDS011;32445;51.376;10.874;2022-12-07T15:16:52;5.38;;;3.28;;
46713;SDS011;32445;51.376;10.874;2022-12-07T15:19:52;6.68;;;3.35;;
46713;SDS011;32445;51.376;10.874;2022-12-07T15:22:52;7.88;;;6.18;;
46713;SDS011;32445;51.376;10.874;2022-12-07T15:25:53;4.63;;;4.20;;
46713;SDS011;32445;51.376;10.874;2022-12-07T15:28:53;4.32;;;3.85;;
46713;SDS011;32445;51.376;10.874;2022-12-07T15:31:54;4.97;;;3.40;;
46713;SDS011;32445;51.376;10.874;2022-12-07T15:34:55;5.78;;;3.10;;
46713;SDS011;32445;51.376;10.874;2022-12-07T15:37:55;6.00;;;3.60;;
46713;SDS011;32445;51.376;10.874;2022-12-07T15:40:56;8.68;;;3.58;;
46713;SDS011;32445;51.376;10.874;2022-12-07T15:43:57;5.60;;;3.22;;
46713;SDS011;32445;51.376;10.874;2022-12-07T15:47:16;4.93;;;3.60;;
46713;SDS011;32445;51.376;10.874;2022-12-07T15:50:16;6.78;;;4.30;;
46713;SDS011;32445;51.376;10.874;2022-12-07T15:53:17;6.28;;;3.42;;
46713;SDS011;32445;51.376;10.874;2022-12-07T15:56:17;8.35;;;5.00;;
46713;SDS011;32445;51.376;10.874;2022-12-07T15:59:18;5.72;;;4.10;;
46713;SDS011;32445;51.376;10.874;2022-12-07T16:02:18;5.95;;;4.03;;
46713;SDS011;32445;51.376;10.874;2022-12-07T16:05:18;6.38;;;3.78;;
46713;SDS011;32445;51.376;10.874;2022-12-07T16:08:19;3.65;;;3.35;;
46713;SDS011;32445;51.376;10.874;2022-12-07T16:11:20;6.70;;;3.58;;
46713;SDS011;32445;51.376;10.874;2022-12-07T16:14:20;4.82;;;3.90;;
46713;SDS011;32445;51.376;10.874;2022-12-07T16:17:21;5.70;;;3.90;;
46713;SDS011;32445;51.376;10.874;2022-12-07T16:20:21;4.65;;;4.25;;
46713;SDS011;32445;51.376;10.874;2022-12-07T16:23:22;10.45;;;4.38;;
46713;SDS011;32445;51.376;10.874;2022-12-07T16:26:22;5.50;;;4.47;;
46713;SDS011;32445;51.376;10.874;2022-12-07T16:29:22;8.05;;;3.55;;
46713;SDS011;32445;51.376;10.874;2022-12-07T16:32:23;7.93;;;4.70;;
46713;SDS011;32445;51.376;10.874;2022-12-07T16:35:23;11.52;;;6.05;;
46713;SDS011;32445;51.376;10.874;2022-12-07T16:38:24;14.77;;;4.72;;
46713;SDS011;32445;51.376;10.874;2022-12-07T16:41:24;6.85;;;5.28;;
46713;SDS011;32445;51.376;10.874;2022-12-07T16:44:24;6.45;;;4.10;;
46713;SDS011;32445;51.376;10.874;2022-12-07T16:47:25;11.18;;;6.95;;
46713;SDS011;32445;51.376;10.874;2022-12-07T16:50:25;8.73;;;5.78;;
46713;SDS011;32445;51.376;10.874;2022-12-07T16:53:26;7.95;;;6.47;;
46713;SDS011;32445;51.376;10.874;2022-12-07T16:56:26;5.60;;;3.70;;
46713;SDS011;32445;51.376;10.874;2022-12-07T16:59:28;9.40;;;4.75;;
46713;SDS011;32445;51.376;10.874;2022-12-07T17:02:29;10.90;;;4.47;;
46713;SDS011;32445;51.376;10.874;2022-12-07T17:05:29;6.45;;;5.35;;
46713;SDS011;32445;51.376;10.874;2022-12-07T17:08:30;27.15;;;15.90;;
46713;SDS011;32445;51.376;10.874;2022-12-07T17:11:30;10.07;;;7.95;;
46713;SDS011;32445;51.376;10.874;2022-12-07T17:14:31;20.70;;;13.98;;
46713;SDS011;32445;51.376;10.874;2022-12-07T17:17:54;10.85;;;9.63;;
46713;SDS011;32445;51.376;10.874;2022-12-07T17:20:59;11.73;;;10.60;;
46713;SDS011;32445;51.376;10.874;2022-12-07T17:24:03;10.48;;;8.48;;
46713;SDS011;32445;51.376;10.874;2022-12-07T17:27:04;9.93;;;7.80;;
46713;SDS011;32445;51.376;10.874;2022-12-07T17:30:05;12.90;;;7.65;;
46713;SDS011;32445;51.376;10.874;2022-12-07T17:33:06;7.65;;;6.85;;
46713;SDS011;32445;51.376;10.874;2022-12-07T17:36:11;8.40;;;6.00;;
46713;SDS011;32445;51.376;10.874;2022-12-07T17:39:13;14.45;;;8.55;;
46713;SDS011;32445;51.376;10.874;2022-12-07T17:42:15;7.93;;;5.80;;
46713;SDS011;32445;51.376;10.874;2022-12-07T17:45:35;6.53;;;5.82;;
46713;SDS011;32445;51.376;10.874;2022-12-07T17:48:36;13.07;;;6.93;;
46713;SDS011;32445;51.376;10.874;2022-12-07T17:51:37;9.68;;;6.30;;
46713;SDS011;32445;51.376;10.874;2022-12-07T17:54:56;24.90;;;15.13;;
46713;SDS011;32445;51.376;10.874;2022-12-07T17:57:56;11.35;;;7.07;;
46713;SDS011;32445;51.376;10.874;2022-12-07T18:00:57;8.25;;;6.45;;
46713;SDS011;32445;51.376;10.874;2022-12-07T18:03:57;11.05;;;6.47;;
46713;SDS011;32445;51.376;10.874;2022-12-07T18:06:57;7.03;;;6.53;;
46713;SDS011;32445;51.376;10.874;2022-12-07T18:09:58;10.75;;;6.47;;
46713;SDS011;32445;51.376;10.874;2022-12-07T18:12:58;7.53;;;6.82;;
46713;SDS011;32445;51.376;10.874;2022-12-07T18:16:20;11.95;;;7.82;;
46713;SDS011;32445;51.376;10.874;2022-12-07T18:19:22;7.88;;;6.00;;
46713;SDS011;32445;51.376;10.874;2022-12-07T18:22:25;7.10;;;6.07;;
46713;SDS011;32445;51.376;10.874;2022-12-07T18:25:26;7.00;;;5.50;;
46713;SDS011;32445;51.376;10.874;2022-12-07T18:28:27;7.38;;;6.32;;
46713;SDS011;32445;51.376;10.874;2022-12-07T18:31:29;8.88;;;5.60;;
46713;SDS011;32445;51.376;10.874;2022-12-07T18:34:30;7.20;;;5.80;;
46713;SDS011;32445;51.376;10.874;2022-12-07T18:37:31;10.10;;;5.93;;
46713;SDS011;32445;51.376;10.874;2022-12-07T18:40:32;7.93;;;6.20;;
46713;SDS011;32445;51.376;10.874;2022-12-07T18:43:32;10.15;;;6.90;;
46713;SDS011;32445;51.376;10.874;2022-12-07T18:46:33;15.95;;;7.45;;
46713;SDS011;32445;51.376;10.874;2022-12-07T18:49:34;11.65;;;7.15;;
46713;SDS011;32445;51.376;10.874;2022-12-07T18:52:34;16.38;;;8.77;;
46713;SDS011;32445;51.376;10.874;2022-12-07T18:55:35;8.95;;;7.63;;
46713;SDS011;32445;51.376;10.874;2022-12-07T18:58:36;8.02;;;7.22;;
46713;SDS011;32445;51.376;10.874;2022-12-07T19:01:37;12.40;;;8.50;;
46713;SDS011;32445;51.376;10.874;2022-12-07T19:04:38;18.52;;;8.02;;
46713;SDS011;32445;51.376;10.874;2022-12-07T19:07:38;10.35;;;7.85;;
46713;SDS011;32445;51.376;10.874;2022-12-07T19:10:39;10.75;;;6.95;;
46713;SDS011;32445;51.376;10.874;2022-12-07T19:13:39;11.02;;;7.05;;
46713;SDS011;32445;51.376;10.874;2022-12-07T19:16:40;7.30;;;6.38;;
46713;SDS011;32445;51.376;10.874;2022-12-07T19:19:42;9.52;;;6.90;;
46713;SDS011;32445;51.376;10.874;2022-12-07T19:22:44;11.48;;;7.45;;
46713;SDS011;32445;51.376;10.874;2022-12-07T19:25:44;8.68;;;7.57;;
46713;SDS011;32445;51.376;10.874;2022-12-07T19:28:44;8.90;;;6.88;;
46713;SDS011;32445;51.376;10.874;2022-12-07T19:31:45;35.85;;;19.75;;
46713;SDS011;32445;51.376;10.874;2022-12-07T19:34:45;10.13;;;6.90;;
46713;SDS011;32445;51.376;10.874;2022-12-07T19:37:47;10.73;;;7.57;;
46713;SDS011;32445;51.376;10.874;2022-12-07T19:40:47;10.40;;;7.05;;
46713;SDS011;32445;51.376;10.874;2022-12-07T19:43:48;12.30;;;8.00;;